Lake Shore, Maryland
Current Conditions -  °F | °C
As of 11:54 AM on Tuesday 27 Jan 2015 (Local Time) from KNAK Reporting Station
Overcast Overcast  
Wind Chill: 24°   Ceiling: 4300
Heat Index: 33°   Visibility: 10mi
Dew Point: 22°   Wind: 13mph
Humidity: 64%   Direction: 320°NW
Pressure: 29.79"   Gusts: NA
Location:  39.11°N, 76.49°W
Report Text: KNAK 271654Z AUTO 32011KT 10SM SCT028 OVC043 01/M06 A2979 RMK AO2 SLP089 T00061056
Loading
Personal Weather Stations






























Interactive Weather Map New forecast layout! Learn more

10-Day Weather Forecast

Advertisements
Track Severe Weather on mobile